sensor_id;sensor_type;location;lat;lon;timestamp;P1;durP1;ratioP1;P2;durP2;ratioP2
57247;SDS011;55809;46.618;10.764;2024-03-02T00:00:20;7.50;;;2.92;;
57247;SDS011;55809;46.618;10.764;2024-03-02T00:02:48;6.68;;;2.60;;
57247;SDS011;55809;46.618;10.764;2024-03-02T00:05:16;6.93;;;2.72;;
57247;SDS011;55809;46.618;10.764;2024-03-02T00:07:47;6.57;;;2.63;;
57247;SDS011;55809;46.618;10.764;2024-03-02T00:10:19;6.18;;;2.83;;
57247;SDS011;55809;46.618;10.764;2024-03-02T00:12:50;6.15;;;2.60;;
57247;SDS011;55809;46.618;10.764;2024-03-02T00:15:24;6.07;;;2.67;;
57247;SDS011;55809;46.618;10.764;2024-03-02T00:18:06;7.05;;;2.80;;
57247;SDS011;55809;46.618;10.764;2024-03-02T00:20:34;8.20;;;2.92;;
57247;SDS011;55809;46.618;10.764;2024-03-02T00:23:02;6.10;;;2.80;;
57247;SDS011;55809;46.618;10.764;2024-03-02T00:25:35;6.60;;;2.72;;
57247;SDS011;55809;46.618;10.764;2024-03-02T00:28:05;6.95;;;2.80;;
57247;SDS011;55809;46.618;10.764;2024-03-02T00:30:47;8.15;;;2.90;;
57247;SDS011;55809;46.618;10.764;2024-03-02T00:33:19;5.18;;;2.53;;
57247;SDS011;55809;46.618;10.764;2024-03-02T00:35:47;6.40;;;2.67;;
57247;SDS011;55809;46.618;10.764;2024-03-02T00:38:17;5.63;;;2.50;;
57247;SDS011;55809;46.618;10.764;2024-03-02T00:40:44;8.07;;;2.60;;
57247;SDS011;55809;46.618;10.764;2024-03-02T00:43:17;6.15;;;2.40;;
57247;SDS011;55809;46.618;10.764;2024-03-02T00:46:07;5.43;;;2.55;;
57247;SDS011;55809;46.618;10.764;2024-03-02T00:48:34;6.78;;;3.25;;
57247;SDS011;55809;46.618;10.764;2024-03-02T00:51:02;7.10;;;2.55;;
57247;SDS011;55809;46.618;10.764;2024-03-02T00:53:31;5.45;;;2.35;;
57247;SDS011;55809;46.618;10.764;2024-03-02T00:55:59;4.60;;;2.20;;
57247;SDS011;55809;46.618;10.764;2024-03-02T00:58:27;7.75;;;2.60;;
57247;SDS011;55809;46.618;10.764;2024-03-02T01:00:54;6.38;;;2.35;;
57247;SDS011;55809;46.618;10.764;2024-03-02T01:03:21;5.85;;;2.20;;
57247;SDS011;55809;46.618;10.764;2024-03-02T01:05:48;6.35;;;2.00;;
57247;SDS011;55809;46.618;10.764;2024-03-02T01:08:15;6.35;;;2.00;;
57247;SDS011;55809;46.618;10.764;2024-03-02T01:10:43;4.78;;;2.05;;
57247;SDS011;55809;46.618;10.764;2024-03-02T01:13:10;7.10;;;2.42;;
57247;SDS011;55809;46.618;10.764;2024-03-02T01:15:37;5.43;;;2.33;;
57247;SDS011;55809;46.618;10.764;2024-03-02T01:18:04;5.72;;;2.60;;
57247;SDS011;55809;46.618;10.764;2024-03-02T01:20:31;6.32;;;2.78;;
57247;SDS011;55809;46.618;10.764;2024-03-02T01:22:58;6.70;;;2.90;;
57247;SDS011;55809;46.618;10.764;2024-03-02T01:25:25;9.50;;;2.88;;
57247;SDS011;55809;46.618;10.764;2024-03-02T01:27:53;6.20;;;2.25;;
57247;SDS011;55809;46.618;10.764;2024-03-02T01:30:20;6.97;;;3.35;;
57247;SDS011;55809;46.618;10.764;2024-03-02T01:32:47;6.93;;;2.50;;
57247;SDS011;55809;46.618;10.764;2024-03-02T01:35:14;5.88;;;2.17;;
57247;SDS011;55809;46.618;10.764;2024-03-02T01:37:41;5.78;;;2.03;;
57247;SDS011;55809;46.618;10.764;2024-03-02T01:40:09;5.35;;;2.00;;
57247;SDS011;55809;46.618;10.764;2024-03-02T01:42:37;5.72;;;2.20;;
57247;SDS011;55809;46.618;10.764;2024-03-02T01:45:07;4.75;;;2.28;;
57247;SDS011;55809;46.618;10.764;2024-03-02T01:50:02;4.97;;;2.13;;
57247;SDS011;55809;46.618;10.764;2024-03-02T01:52:29;4.55;;;2.17;;
57247;SDS011;55809;46.618;10.764;2024-03-02T01:54:56;6.68;;;2.53;;
57247;SDS011;55809;46.618;10.764;2024-03-02T01:57:22;5.57;;;2.17;;
57247;SDS011;55809;46.618;10.764;2024-03-02T01:59:49;4.85;;;1.98;;
57247;SDS011;55809;46.618;10.764;2024-03-02T02:02:19;4.88;;;2.30;;
57247;SDS011;55809;46.618;10.764;2024-03-02T02:04:46;4.85;;;2.00;;
57247;SDS011;55809;46.618;10.764;2024-03-02T02:07:13;6.45;;;2.00;;
57247;SDS011;55809;46.618;10.764;2024-03-02T02:09:40;5.60;;;2.10;;
57247;SDS011;55809;46.618;10.764;2024-03-02T02:12:08;4.15;;;2.00;;
57247;SDS011;55809;46.618;10.764;2024-03-02T02:14:36;5.75;;;2.65;;
57247;SDS011;55809;46.618;10.764;2024-03-02T02:17:05;6.45;;;2.47;;
57247;SDS011;55809;46.618;10.764;2024-03-02T02:19:33;4.55;;;2.00;;
57247;SDS011;55809;46.618;10.764;2024-03-02T02:22:01;4.85;;;2.17;;
57247;SDS011;55809;46.618;10.764;2024-03-02T02:24:28;6.43;;;2.65;;
57247;SDS011;55809;46.618;10.764;2024-03-02T02:26:55;6.65;;;3.20;;
57247;SDS011;55809;46.618;10.764;2024-03-02T02:29:22;6.00;;;2.90;;
57247;SDS011;55809;46.618;10.764;2024-03-02T02:31:49;7.63;;;2.88;;
57247;SDS011;55809;46.618;10.764;2024-03-02T02:34:16;5.35;;;2.35;;
57247;SDS011;55809;46.618;10.764;2024-03-02T02:36:43;6.10;;;2.42;;
57247;SDS011;55809;46.618;10.764;2024-03-02T02:39:13;6.63;;;2.38;;
57247;SDS011;55809;46.618;10.764;2024-03-02T02:41:42;5.38;;;2.47;;
57247;SDS011;55809;46.618;10.764;2024-03-02T02:44:09;7.53;;;3.33;;
57247;SDS011;55809;46.618;10.764;2024-03-02T02:46:38;7.70;;;3.33;;
57247;SDS011;55809;46.618;10.764;2024-03-02T02:49:04;5.57;;;2.45;;
57247;SDS011;55809;46.618;10.764;2024-03-02T02:51:31;6.45;;;2.72;;
57247;SDS011;55809;46.618;10.764;2024-03-02T02:53:58;7.65;;;2.85;;
57247;SDS011;55809;46.618;10.764;2024-03-02T02:56:27;6.13;;;2.30;;
57247;SDS011;55809;46.618;10.764;2024-03-02T02:58:54;5.30;;;2.50;;
57247;SDS011;55809;46.618;10.764;2024-03-02T03:01:21;6.45;;;2.20;;
57247;SDS011;55809;46.618;10.764;2024-03-02T03:03:47;6.50;;;2.60;;
57247;SDS011;55809;46.618;10.764;2024-03-02T03:06:14;8.43;;;3.00;;
57247;SDS011;55809;46.618;10.764;2024-03-02T03:08:41;9.32;;;3.20;;
57247;SDS011;55809;46.618;10.764;2024-03-02T03:11:08;5.55;;;2.85;;
57247;SDS011;55809;46.618;10.764;2024-03-02T03:13:37;7.85;;;3.28;;
57247;SDS011;55809;46.618;10.764;2024-03-02T03:16:04;6.25;;;3.17;;
57247;SDS011;55809;46.618;10.764;2024-03-02T03:18:32;7.25;;;3.30;;
57247;SDS011;55809;46.618;10.764;2024-03-02T03:20:59;7.65;;;2.70;;
57247;SDS011;55809;46.618;10.764;2024-03-02T03:23:26;6.75;;;2.83;;
57247;SDS011;55809;46.618;10.764;2024-03-02T03:25:52;8.02;;;2.97;;
57247;SDS011;55809;46.618;10.764;2024-03-02T03:28:19;7.25;;;3.35;;
57247;SDS011;55809;46.618;10.764;2024-03-02T03:30:48;6.57;;;2.95;;
57247;SDS011;55809;46.618;10.764;2024-03-02T03:33:14;7.22;;;3.17;;
57247;SDS011;55809;46.618;10.764;2024-03-02T03:35:41;6.53;;;3.30;;
57247;SDS011;55809;46.618;10.764;2024-03-02T03:38:08;6.47;;;3.22;;
57247;SDS011;55809;46.618;10.764;2024-03-02T03:40:35;5.55;;;2.85;;
57247;SDS011;55809;46.618;10.764;2024-03-02T03:43:02;6.22;;;3.20;;
57247;SDS011;55809;46.618;10.764;2024-03-02T03:45:29;6.38;;;3.20;;
57247;SDS011;55809;46.618;10.764;2024-03-02T03:47:57;7.88;;;3.17;;
57247;SDS011;55809;46.618;10.764;2024-03-02T03:50:24;7.25;;;2.97;;
57247;SDS011;55809;46.618;10.764;2024-03-02T03:52:51;6.65;;;3.03;;
57247;SDS011;55809;46.618;10.764;2024-03-02T03:55:18;7.97;;;3.65;;
57247;SDS011;55809;46.618;10.764;2024-03-02T03:57:45;7.40;;;3.60;;
57247;SDS011;55809;46.618;10.764;2024-03-02T04:00:12;7.95;;;3.53;;
57247;SDS011;55809;46.618;10.764;2024-03-02T04:02:40;7.05;;;3.33;;
57247;SDS011;55809;46.618;10.764;2024-03-02T04:05:08;6.88;;;3.47;;
57247;SDS011;55809;46.618;10.764;2024-03-02T04:07:36;7.50;;;3.22;;
57247;SDS011;55809;46.618;10.764;2024-03-02T04:10:08;7.83;;;3.57;;
57247;SDS011;55809;46.618;10.764;2024-03-02T04:12:37;6.70;;;3.53;;
57247;SDS011;55809;46.618;10.764;2024-03-02T04:15:04;8.10;;;3.15;;
57247;SDS011;55809;46.618;10.764;2024-03-02T04:17:32;5.93;;;2.35;;
57247;SDS011;55809;46.618;10.764;2024-03-02T04:20:00;6.65;;;2.60;;
57247;SDS011;55809;46.618;10.764;2024-03-02T04:22:32;5.43;;;2.33;;
57247;SDS011;55809;46.618;10.764;2024-03-02T04:25:00;5.82;;;3.25;;
57247;SDS011;55809;46.618;10.764;2024-03-02T04:27:29;4.93;;;2.53;;
57247;SDS011;55809;46.618;10.764;2024-03-02T04:29:57;7.95;;;2.70;;
57247;SDS011;55809;46.618;10.764;2024-03-02T04:32:25;6.22;;;2.47;;
57247;SDS011;55809;46.618;10.764;2024-03-02T04:34:52;7.53;;;2.90;;
57247;SDS011;55809;46.618;10.764;2024-03-02T04:37:19;8.02;;;2.90;;
57247;SDS011;55809;46.618;10.764;2024-03-02T04:39:48;6.82;;;2.97;;
57247;SDS011;55809;46.618;10.764;2024-03-02T04:42:15;5.07;;;2.15;;
57247;SDS011;55809;46.618;10.764;2024-03-02T04:44:42;6.78;;;2.70;;
57247;SDS011;55809;46.618;10.764;2024-03-02T04:47:08;5.38;;;2.50;;
57247;SDS011;55809;46.618;10.764;2024-03-02T04:49:35;5.70;;;2.58;;
57247;SDS011;55809;46.618;10.764;2024-03-02T04:52:02;6.13;;;2.78;;
57247;SDS011;55809;46.618;10.764;2024-03-02T04:54:30;5.80;;;2.13;;
57247;SDS011;55809;46.618;10.764;2024-03-02T04:56:58;6.78;;;2.80;;
57247;SDS011;55809;46.618;10.764;2024-03-02T04:59:26;6.97;;;2.35;;
57247;SDS011;55809;46.618;10.764;2024-03-02T05:01:53;6.57;;;2.40;;
57247;SDS011;55809;46.618;10.764;2024-03-02T05:04:20;5.40;;;2.20;;
57247;SDS011;55809;46.618;10.764;2024-03-02T05:06:47;6.00;;;2.10;;
57247;SDS011;55809;46.618;10.764;2024-03-02T05:09:17;4.85;;;2.00;;
57247;SDS011;55809;46.618;10.764;2024-03-02T05:11:44;7.57;;;2.58;;
57247;SDS011;55809;46.618;10.764;2024-03-02T05:14:38;6.03;;;2.58;;
57247;SDS011;55809;46.618;10.764;2024-03-02T05:17:05;4.68;;;2.30;;
57247;SDS011;55809;46.618;10.764;2024-03-02T05:19:32;5.90;;;2.50;;
57247;SDS011;55809;46.618;10.764;2024-03-02T05:21:59;6.85;;;2.67;;
57247;SDS011;55809;46.618;10.764;2024-03-02T05:24:25;5.60;;;2.55;;
57247;SDS011;55809;46.618;10.764;2024-03-02T05:26:53;4.47;;;2.22;;
57247;SDS011;55809;46.618;10.764;2024-03-02T05:29:20;5.63;;;2.50;;
57247;SDS011;55809;46.618;10.764;2024-03-02T05:31:49;7.18;;;2.58;;
57247;SDS011;55809;46.618;10.764;2024-03-02T05:34:15;5.68;;;2.60;;
57247;SDS011;55809;46.618;10.764;2024-03-02T05:36:43;6.53;;;2.50;;
57247;SDS011;55809;46.618;10.764;2024-03-02T05:39:10;5.75;;;2.50;;
57247;SDS011;55809;46.618;10.764;2024-03-02T05:41:37;6.85;;;2.30;;
57247;SDS011;55809;46.618;10.764;2024-03-02T05:44:04;5.30;;;2.90;;
57247;SDS011;55809;46.618;10.764;2024-03-02T05:46:31;5.43;;;2.25;;
57247;SDS011;55809;46.618;10.764;2024-03-02T05:48:59;5.43;;;2.20;;
57247;SDS011;55809;46.618;10.764;2024-03-02T05:51:26;5.70;;;2.58;;
57247;SDS011;55809;46.618;10.764;2024-03-02T05:53:53;6.75;;;2.85;;
57247;SDS011;55809;46.618;10.764;2024-03-02T05:56:20;6.25;;;2.75;;
57247;SDS011;55809;46.618;10.764;2024-03-02T05:58:47;6.25;;;2.78;;
57247;SDS011;55809;46.618;10.764;2024-03-02T06:01:25;8.45;;;3.38;;
57247;SDS011;55809;46.618;10.764;2024-03-02T06:03:55;7.05;;;3.42;;
57247;SDS011;55809;46.618;10.764;2024-03-02T06:06:23;8.65;;;3.42;;
57247;SDS011;55809;46.618;10.764;2024-03-02T06:08:50;7.05;;;3.17;;
57247;SDS011;55809;46.618;10.764;2024-03-02T06:11:17;7.63;;;3.05;;
57247;SDS011;55809;46.618;10.764;2024-03-02T06:13:46;6.88;;;3.20;;
57247;SDS011;55809;46.618;10.764;2024-03-02T06:16:13;5.47;;;2.67;;
57247;SDS011;55809;46.618;10.764;2024-03-02T06:18:40;6.97;;;2.65;;
57247;SDS011;55809;46.618;10.764;2024-03-02T06:21:07;7.40;;;2.80;;
57247;SDS011;55809;46.618;10.764;2024-03-02T06:23:35;6.43;;;3.03;;
57247;SDS011;55809;46.618;10.764;2024-03-02T06:26:02;6.50;;;3.00;;
57247;SDS011;55809;46.618;10.764;2024-03-02T06:28:30;7.15;;;3.45;;
57247;SDS011;55809;46.618;10.764;2024-03-02T06:30:56;6.75;;;3.38;;
57247;SDS011;55809;46.618;10.764;2024-03-02T06:33:23;8.65;;;4.53;;
57247;SDS011;55809;46.618;10.764;2024-03-02T06:35:51;8.23;;;4.30;;
57247;SDS011;55809;46.618;10.764;2024-03-02T06:38:18;9.23;;;3.80;;
57247;SDS011;55809;46.618;10.764;2024-03-02T06:40:46;6.30;;;3.60;;
57247;SDS011;55809;46.618;10.764;2024-03-02T06:43:13;9.30;;;4.03;;
57247;SDS011;55809;46.618;10.764;2024-03-02T06:45:40;6.72;;;3.40;;
57247;SDS011;55809;46.618;10.764;2024-03-02T06:48:07;6.72;;;2.95;;
57247;SDS011;55809;46.618;10.764;2024-03-02T06:50:34;5.90;;;2.70;;
57247;SDS011;55809;46.618;10.764;2024-03-02T06:53:01;6.00;;;3.10;;
57247;SDS011;55809;46.618;10.764;2024-03-02T06:55:29;6.30;;;2.90;;
57247;SDS011;55809;46.618;10.764;2024-03-02T06:57:57;7.28;;;2.92;;
57247;SDS011;55809;46.618;10.764;2024-03-02T07:00:24;6.38;;;2.67;;
57247;SDS011;55809;46.618;10.764;2024-03-02T07:02:51;8.02;;;3.55;;
57247;SDS011;55809;46.618;10.764;2024-03-02T07:05:18;9.32;;;4.80;;
57247;SDS011;55809;46.618;10.764;2024-03-02T07:07:46;8.93;;;4.53;;
57247;SDS011;55809;46.618;10.764;2024-03-02T07:10:13;9.98;;;4.35;;
57247;SDS011;55809;46.618;10.764;2024-03-02T07:12:40;9.88;;;4.88;;
57247;SDS011;55809;46.618;10.764;2024-03-02T07:15:09;8.68;;;4.28;;
57247;SDS011;55809;46.618;10.764;2024-03-02T07:18:02;7.72;;;4.18;;
57247;SDS011;55809;46.618;10.764;2024-03-02T07:20:30;7.28;;;3.58;;
57247;SDS011;55809;46.618;10.764;2024-03-02T07:22:57;7.22;;;3.47;;
57247;SDS011;55809;46.618;10.764;2024-03-02T07:25:24;7.53;;;3.35;;
57247;SDS011;55809;46.618;10.764;2024-03-02T07:27:51;8.43;;;3.10;;
57247;SDS011;55809;46.618;10.764;2024-03-02T07:30:19;7.38;;;3.80;;
57247;SDS011;55809;46.618;10.764;2024-03-02T07:32:49;6.63;;;2.50;;
57247;SDS011;55809;46.618;10.764;2024-03-02T07:35:16;10.15;;;2.97;;
57247;SDS011;55809;46.618;10.764;2024-03-02T07:37:43;7.20;;;3.63;;
57247;SDS011;55809;46.618;10.764;2024-03-02T07:40:11;8.30;;;3.05;;
57247;SDS011;55809;46.618;10.764;2024-03-02T07:42:39;7.03;;;3.22;;
57247;SDS011;55809;46.618;10.764;2024-03-02T07:45:06;8.35;;;3.45;;
57247;SDS011;55809;46.618;10.764;2024-03-02T07:47:35;6.75;;;3.50;;
57247;SDS011;55809;46.618;10.764;2024-03-02T07:50:02;8.02;;;3.20;;
57247;SDS011;55809;46.618;10.764;2024-03-02T07:52:31;7.20;;;3.13;;
57247;SDS011;55809;46.618;10.764;2024-03-02T07:54:58;7.25;;;3.03;;
57247;SDS011;55809;46.618;10.764;2024-03-02T07:57:25;5.47;;;3.30;;
57247;SDS011;55809;46.618;10.764;2024-03-02T07:59:52;6.10;;;2.80;;
57247;SDS011;55809;46.618;10.764;2024-03-02T08:02:19;5.78;;;2.20;;
57247;SDS011;55809;46.618;10.764;2024-03-02T08:04:48;8.57;;;3.40;;
57247;SDS011;55809;46.618;10.764;2024-03-02T08:07:15;5.05;;;2.50;;
57247;SDS011;55809;46.618;10.764;2024-03-02T08:09:42;5.38;;;2.38;;
57247;SDS011;55809;46.618;10.764;2024-03-02T08:12:09;5.90;;;2.00;;
57247;SDS011;55809;46.618;10.764;2024-03-02T08:14:36;7.90;;;2.95;;
57247;SDS011;55809;46.618;10.764;2024-03-02T08:17:03;6.50;;;2.40;;
57247;SDS011;55809;46.618;10.764;2024-03-02T08:19:34;6.10;;;2.53;;
57247;SDS011;55809;46.618;10.764;2024-03-02T08:22:03;6.18;;;2.22;;
57247;SDS011;55809;46.618;10.764;2024-03-02T08:24:30;7.43;;;2.50;;
57247;SDS011;55809;46.618;10.764;2024-03-02T08:26:58;5.22;;;2.13;;
57247;SDS011;55809;46.618;10.764;2024-03-02T08:29:25;6.07;;;2.35;;
57247;SDS011;55809;46.618;10.764;2024-03-02T08:31:52;6.22;;;3.28;;
57247;SDS011;55809;46.618;10.764;2024-03-02T08:34:19;5.57;;;2.35;;
57247;SDS011;55809;46.618;10.764;2024-03-02T08:36:46;4.35;;;2.10;;
57247;SDS011;55809;46.618;10.764;2024-03-02T08:39:15;6.53;;;2.25;;
57247;SDS011;55809;46.618;10.764;2024-03-02T08:41:42;5.13;;;2.13;;
57247;SDS011;55809;46.618;10.764;2024-03-02T08:44:11;5.93;;;2.35;;
57247;SDS011;55809;46.618;10.764;2024-03-02T08:46:38;4.78;;;1.85;;
57247;SDS011;55809;46.618;10.764;2024-03-02T08:49:06;4.85;;;1.92;;
57247;SDS011;55809;46.618;10.764;2024-03-02T08:51:33;4.28;;;2.00;;
57247;SDS011;55809;46.618;10.764;2024-03-02T08:54:00;6.10;;;2.13;;
57247;SDS011;55809;46.618;10.764;2024-03-02T08:56:28;5.50;;;2.20;;
57247;SDS011;55809;46.618;10.764;2024-03-02T08:58:56;5.20;;;2.25;;
57247;SDS011;55809;46.618;10.764;2024-03-02T09:01:23;4.35;;;1.95;;
57247;SDS011;55809;46.618;10.764;2024-03-02T09:03:50;5.40;;;2.28;;
57247;SDS011;55809;46.618;10.764;2024-03-02T09:06:18;4.22;;;2.00;;
57247;SDS011;55809;46.618;10.764;2024-03-02T09:08:46;4.78;;;2.00;;
57247;SDS011;55809;46.618;10.764;2024-03-02T09:11:15;5.35;;;2.40;;
57247;SDS011;55809;46.618;10.764;2024-03-02T09:13:43;5.00;;;1.80;;
57247;SDS011;55809;46.618;10.764;2024-03-02T09:16:10;4.68;;;1.88;;
57247;SDS011;55809;46.618;10.764;2024-03-02T09:18:37;4.10;;;2.20;;
57247;SDS011;55809;46.618;10.764;2024-03-02T09:21:04;5.38;;;2.20;;
57247;SDS011;55809;46.618;10.764;2024-03-02T09:23:31;5.20;;;1.90;;
57247;SDS011;55809;46.618;10.764;2024-03-02T09:25:58;2.88;;;1.42;;
57247;SDS011;55809;46.618;10.764;2024-03-02T09:28:26;3.58;;;1.55;;
57247;SDS011;55809;46.618;10.764;2024-03-02T09:30:54;4.55;;;1.50;;
57247;SDS011;55809;46.618;10.764;2024-03-02T09:33:21;4.07;;;1.80;;
57247;SDS011;55809;46.618;10.764;2024-03-02T09:35:48;5.03;;;1.85;;
57247;SDS011;55809;46.618;10.764;2024-03-02T09:38:15;4.80;;;1.60;;
57247;SDS011;55809;46.618;10.764;2024-03-02T09:40:42;3.95;;;1.88;;
57247;SDS011;55809;46.618;10.764;2024-03-02T09:43:09;5.35;;;1.70;;
57247;SDS011;55809;46.618;10.764;2024-03-02T09:45:36;2.88;;;1.50;;
57247;SDS011;55809;46.618;10.764;2024-03-02T09:48:05;15.65;;;2.92;;
57247;SDS011;55809;46.618;10.764;2024-03-02T09:50:33;6.72;;;1.48;;
57247;SDS011;55809;46.618;10.764;2024-03-02T09:53:00;6.13;;;1.90;;
57247;SDS011;55809;46.618;10.764;2024-03-02T09:55:27;6.47;;;1.70;;
57247;SDS011;55809;46.618;10.764;2024-03-02T09:57:54;7.50;;;2.10;;
57247;SDS011;55809;46.618;10.764;2024-03-02T10:00:21;6.00;;;2.00;;
57247;SDS011;55809;46.618;10.764;2024-03-02T10:02:49;4.95;;;2.13;;
57247;SDS011;55809;46.618;10.764;2024-03-02T10:05:27;4.43;;;1.75;;
57247;SDS011;55809;46.618;10.764;2024-03-02T10:08:00;4.88;;;1.75;;
57247;SDS011;55809;46.618;10.764;2024-03-02T10:10:34;6.50;;;2.08;;
57247;SDS011;55809;46.618;10.764;2024-03-02T10:13:05;4.18;;;1.70;;
57247;SDS011;55809;46.618;10.764;2024-03-02T10:15:34;6.32;;;2.00;;
57247;SDS011;55809;46.618;10.764;2024-03-02T10:18:02;3.65;;;1.70;;
57247;SDS011;55809;46.618;10.764;2024-03-02T10:20:31;4.28;;;1.65;;
57247;SDS011;55809;46.618;10.764;2024-03-02T10:23:09;3.83;;;1.80;;
57247;SDS011;55809;46.618;10.764;2024-03-02T10:25:37;3.95;;;1.42;;
57247;SDS011;55809;46.618;10.764;2024-03-02T10:28:04;2.67;;;1.30;;
57247;SDS011;55809;46.618;10.764;2024-03-02T10:30:31;4.13;;;1.42;;
57247;SDS011;55809;46.618;10.764;2024-03-02T10:32:59;6.13;;;1.77;;
57247;SDS011;55809;46.618;10.764;2024-03-02T10:35:27;6.05;;;1.98;;
57247;SDS011;55809;46.618;10.764;2024-03-02T10:37:57;3.53;;;1.60;;
57247;SDS011;55809;46.618;10.764;2024-03-02T10:40:26;4.38;;;1.80;;
57247;SDS011;55809;46.618;10.764;2024-03-02T10:42:53;4.43;;;1.40;;
57247;SDS011;55809;46.618;10.764;2024-03-02T10:45:20;4.88;;;1.65;;
57247;SDS011;55809;46.618;10.764;2024-03-02T10:47:48;4.03;;;1.55;;
57247;SDS011;55809;46.618;10.764;2024-03-02T10:50:16;4.85;;;1.42;;
57247;SDS011;55809;46.618;10.764;2024-03-02T10:52:43;3.55;;;1.40;;
57247;SDS011;55809;46.618;10.764;2024-03-02T10:55:13;3.63;;;1.30;;
57247;SDS011;55809;46.618;10.764;2024-03-02T10:57:45;6.57;;;1.40;;
57247;SDS011;55809;46.618;10.764;2024-03-02T11:00:18;3.83;;;1.45;;
57247;SDS011;55809;46.618;10.764;2024-03-02T11:02:50;3.50;;;1.20;;
57247;SDS011;55809;46.618;10.764;2024-03-02T11:05:21;5.80;;;1.30;;
57247;SDS011;55809;46.618;10.764;2024-03-02T11:07:53;2.05;;;1.00;;
57247;SDS011;55809;46.618;10.764;2024-03-02T11:10:29;4.20;;;1.00;;
57247;SDS011;55809;46.618;10.764;2024-03-02T11:13:02;3.88;;;1.00;;
57247;SDS011;55809;46.618;10.764;2024-03-02T11:15:32;3.25;;;0.90;;
57247;SDS011;55809;46.618;10.764;2024-03-02T11:18:02;3.10;;;0.90;;
57247;SDS011;55809;46.618;10.764;2024-03-02T11:20:34;2.80;;;0.90;;
57247;SDS011;55809;46.618;10.764;2024-03-02T11:23:06;3.05;;;0.80;;
57247;SDS011;55809;46.618;10.764;2024-03-02T11:25:36;3.97;;;0.90;;
57247;SDS011;55809;46.618;10.764;2024-03-02T11:28:04;2.50;;;0.60;;
57247;SDS011;55809;46.618;10.764;2024-03-02T11:30:50;7.57;;;1.02;;
57247;SDS011;55809;46.618;10.764;2024-03-02T11:33:23;2.80;;;0.80;;
57247;SDS011;55809;46.618;10.764;2024-03-02T11:35:55;0.73;;;0.57;;
57247;SDS011;55809;46.618;10.764;2024-03-02T11:38:22;3.70;;;0.95;;
57247;SDS011;55809;46.618;10.764;2024-03-02T11:40:51;1.13;;;0.63;;
57247;SDS011;55809;46.618;10.764;2024-03-02T11:43:18;1.65;;;0.52;;
57247;SDS011;55809;46.618;10.764;2024-03-02T11:45:46;2.33;;;0.50;;
57247;SDS011;55809;46.618;10.764;2024-03-02T11:48:13;2.47;;;0.90;;
57247;SDS011;55809;46.618;10.764;2024-03-02T11:50:46;2.33;;;0.50;;
57247;SDS011;55809;46.618;10.764;2024-03-02T11:53:15;1.63;;;0.52;;
57247;SDS011;55809;46.618;10.764;2024-03-02T11:55:44;2.92;;;0.73;;
57247;SDS011;55809;46.618;10.764;2024-03-02T11:58:17;1.40;;;0.60;;
57247;SDS011;55809;46.618;10.764;2024-03-02T12:00:46;2.08;;;0.70;;
57247;SDS011;55809;46.618;10.764;2024-03-02T12:03:18;3.17;;;1.25;;
57247;SDS011;55809;46.618;10.764;2024-03-02T12:05:52;2.22;;;0.80;;
57247;SDS011;55809;46.618;10.764;2024-03-02T12:08:20;3.37;;;0.80;;
57247;SDS011;55809;46.618;10.764;2024-03-02T12:11:00;1.73;;;0.60;;
57247;SDS011;55809;46.618;10.764;2024-03-02T12:13:34;2.75;;;0.80;;
57247;SDS011;55809;46.618;10.764;2024-03-02T12:16:03;2.47;;;0.82;;
57247;SDS011;55809;46.618;10.764;2024-03-02T12:18:32;2.88;;;0.80;;
57247;SDS011;55809;46.618;10.764;2024-03-02T12:20:58;3.67;;;1.00;;
57247;SDS011;55809;46.618;10.764;2024-03-02T12:23:29;2.50;;;0.60;;
57247;SDS011;55809;46.618;10.764;2024-03-02T12:25:58;3.47;;;0.90;;
57247;SDS011;55809;46.618;10.764;2024-03-02T12:28:27;1.38;;;0.80;;
57247;SDS011;55809;46.618;10.764;2024-03-02T12:30:56;1.85;;;0.80;;
57247;SDS011;55809;46.618;10.764;2024-03-02T12:33:25;3.03;;;0.77;;
57247;SDS011;55809;46.618;10.764;2024-03-02T12:35:56;5.10;;;0.82;;
57247;SDS011;55809;46.618;10.764;2024-03-02T12:38:25;4.25;;;1.00;;
57247;SDS011;55809;46.618;10.764;2024-03-02T12:40:59;2.38;;;0.70;;
57247;SDS011;55809;46.618;10.764;2024-03-02T12:43:30;1.67;;;0.55;;
57247;SDS011;55809;46.618;10.764;2024-03-02T12:46:00;3.58;;;0.70;;
57247;SDS011;55809;46.618;10.764;2024-03-02T12:48:27;1.95;;;0.65;;
57247;SDS011;55809;46.618;10.764;2024-03-02T12:50:54;0.88;;;0.52;;
57247;SDS011;55809;46.618;10.764;2024-03-02T12:53:21;1.60;;;0.68;;
57247;SDS011;55809;46.618;10.764;2024-03-02T12:55:49;1.67;;;0.60;;
57247;SDS011;55809;46.618;10.764;2024-03-02T12:58:18;1.88;;;0.50;;
57247;SDS011;55809;46.618;10.764;2024-03-02T13:00:46;2.25;;;0.73;;
57247;SDS011;55809;46.618;10.764;2024-03-02T13:03:14;1.23;;;0.70;;
57247;SDS011;55809;46.618;10.764;2024-03-02T13:05:48;2.75;;;0.40;;
57247;SDS011;55809;46.618;10.764;2024-03-02T13:08:16;1.55;;;0.70;;
57247;SDS011;55809;46.618;10.764;2024-03-02T13:10:43;3.60;;;0.60;;
57247;SDS011;55809;46.618;10.764;2024-03-02T13:13:10;0.75;;;0.40;;
57247;SDS011;55809;46.618;10.764;2024-03-02T13:15:37;1.85;;;0.70;;
57247;SDS011;55809;46.618;10.764;2024-03-02T13:18:04;2.80;;;0.65;;
57247;SDS011;55809;46.618;10.764;2024-03-02T13:20:36;2.28;;;0.43;;
57247;SDS011;55809;46.618;10.764;2024-03-02T13:23:05;1.33;;;0.67;;
57247;SDS011;55809;46.618;10.764;2024-03-02T13:25:42;3.72;;;0.60;;
57247;SDS011;55809;46.618;10.764;2024-03-02T13:28:13;3.03;;;0.70;;
57247;SDS011;55809;46.618;10.764;2024-03-02T13:30:42;5.18;;;0.77;;
57247;SDS011;55809;46.618;10.764;2024-03-02T13:33:10;3.10;;;0.70;;
57247;SDS011;55809;46.618;10.764;2024-03-02T13:35:39;2.05;;;0.68;;
57247;SDS011;55809;46.618;10.764;2024-03-02T13:38:06;3.03;;;0.63;;
57247;SDS011;55809;46.618;10.764;2024-03-02T13:40:33;3.70;;;0.82;;
57247;SDS011;55809;46.618;10.764;2024-03-02T13:43:01;3.22;;;0.73;;
57247;SDS011;55809;46.618;10.764;2024-03-02T13:45:28;1.88;;;0.73;;
57247;SDS011;55809;46.618;10.764;2024-03-02T13:47:55;3.25;;;0.75;;
57247;SDS011;55809;46.618;10.764;2024-03-02T13:50:22;1.83;;;0.50;;
57247;SDS011;55809;46.618;10.764;2024-03-02T13:52:50;1.45;;;0.65;;
57247;SDS011;55809;46.618;10.764;2024-03-02T13:55:17;1.10;;;0.60;;
57247;SDS011;55809;46.618;10.764;2024-03-02T13:57:46;1.40;;;0.70;;
57247;SDS011;55809;46.618;10.764;2024-03-02T14:00:14;2.72;;;0.65;;
57247;SDS011;55809;46.618;10.764;2024-03-02T14:02:42;2.30;;;0.77;;
57247;SDS011;55809;46.618;10.764;2024-03-02T14:05:09;2.65;;;0.60;;
57247;SDS011;55809;46.618;10.764;2024-03-02T14:07:37;4.32;;;0.50;;
57247;SDS011;55809;46.618;10.764;2024-03-02T14:10:06;2.47;;;0.73;;
57247;SDS011;55809;46.618;10.764;2024-03-02T14:12:33;2.75;;;0.80;;
57247;SDS011;55809;46.618;10.764;2024-03-02T14:15:00;1.70;;;0.50;;
57247;SDS011;55809;46.618;10.764;2024-03-02T14:17:27;2.50;;;0.68;;
57247;SDS011;55809;46.618;10.764;2024-03-02T14:19:56;3.53;;;0.60;;
57247;SDS011;55809;46.618;10.764;2024-03-02T14:22:24;33.15;;;3.03;;
57247;SDS011;55809;46.618;10.764;2024-03-02T14:24:51;0.80;;;0.35;;
57247;SDS011;55809;46.618;10.764;2024-03-02T14:27:19;0.80;;;0.45;;
57247;SDS011;55809;46.618;10.764;2024-03-02T14:29:46;0.85;;;0.45;;
57247;SDS011;55809;46.618;10.764;2024-03-02T14:32:13;2.40;;;0.70;;
57247;SDS011;55809;46.618;10.764;2024-03-02T14:34:40;3.05;;;0.70;;
57247;SDS011;55809;46.618;10.764;2024-03-02T14:37:07;1.35;;;0.52;;
57247;SDS011;55809;46.618;10.764;2024-03-02T14:39:34;2.35;;;0.65;;
57247;SDS011;55809;46.618;10.764;2024-03-02T14:42:01;2.60;;;0.60;;